Oak Hammock Air Park

CAV9 · Manitoba, Canada

METAR history CAV9 · Oak Hammock Air Park

Below you see METARs of the last few days. Select a year to browse through older METARs, from the year 2007 onwards.

February 23, 2024

Time Code Weather Temp. Visibility Ceiling Wind METAR/SPECI
07:00
V
-15 °C 15 mi - 030° 030° 9 kt METAR CYWG 231300Z 03009KT 15SM FEW230 M15/M19 A3004 RMK CI1 SLP195
06:00
V
-15 °C 15 mi - 020° 020° 10 kt METAR CYWG 231200Z 02010KT 15SM FEW120 FEW230 M15/M18 A3001 RMK AC1CI1 SLP184
05:00
V
-14 °C 15 mi - 030° 030° 12 kt METAR CYWG 231100Z 03012KT 15SM FEW120 SCT230 M14/M17 A2999 RMK AC2CI1 SLP175
04:00
V
-13 °C 15 mi 23,000 ft 020° 020° 12 kt METAR CYWG 231000Z 02012KT 15SM FEW075 SCT120 BKN230 M13/M17 A2998 RMK AC2AC1CI3 SLP171
03:00
V
-12 °C 15 mi - 020° 020° 12 kt METAR CYWG 230900Z 02012KT 15SM SCT075 M12/M16 A2996 RMK AC4 SLP164
02:00
V
-11 °C 15 mi 7,500 ft 020° 020° 18 kt METAR CYWG 230800Z 02018KT 15SM BKN075 BKN100 M11/M15 A2994 RMK AC6AC1 SLP155
01:00
V
-10 °C 15 mi 6,600 ft 010° 010° 17 kt METAR CYWG 230700Z 01017KT 15SM BKN066 BKN120 M10/M14 A2994 RMK AC6AC1 SLP154
00:00
V
-10 °C 15 mi 12,000 ft 020° 020° 16 kt METAR CYWG 230600Z 02016KT 15SM SCT066 BKN120 M10/M14 A2991 RMK AC3AC2 SLP146

February 22, 2024

Time Code Weather Temp. Visibility Ceiling Wind METAR/SPECI
23:00
V
-9 °C 15 mi 6,500 ft 020° 020° 16 kt METAR CYWG 230500Z 02016KT 15SM BKN065 BKN110 M09/M13 A2990 RMK SC7AC1 AC TR SLP143
22:00
V
-8 °C 15 mi 5,700 ft 030° 030° 17 - 22 kt METAR CYWG 230400Z 03017G22KT 15SM BKN057 BKN120 M08/M13 A2989 RMK SC6AC1 SLP141
21:00
V
-7 °C 15 mi 5,100 ft 020° 020° 16 - 22 kt METAR CYWG 230300Z 02016G22KT 15SM FEW019 BKN051 M07/M11 A2988 RMK SC1SC5 SLP137
20:00
V
-5 °C 15 mi 6,000 ft 030° 030° 19 kt METAR CYWG 230200Z 03019KT 15SM SCT018 BKN060 BKN140 BKN160 M05/M09 A2986 RMK SC3SC2AC1AC1 SLP127
19:00
V
-4 °C 15 mi - 020° 020° 12 - 21 kt METAR CYWG 230100Z 02012G21KT 15SM FEW018 FEW032 FEW085 FEW140 FEW210 M04/M08 A2984 RMK CF1SC1AC1AC1CI1 CF TR SC TR CI TR SLP122
18:00
V
-2 °C 15 mi - 010° 010° 17 - 24 kt METAR CYWG 230000Z 01017G24KT 15SM FEW020 FEW035 FEW090 FEW110 M02/M07 A2982 RMK SC1SC1AC1AS1 SC TR SC TR SLP114
17:00
V
0 °C 15 mi 26,000 ft 020° 020° 16 - 22 kt METAR CYWG 222300Z 02016G22KT 15SM FEW025 FEW030 SCT110 BKN260 00/M04 A2979 RMK SC1SC1AC1CI2 SLP104
16:00
V
2 °C 15 mi - 300° 300° 12 kt METAR CYWG 222200Z 30012KT 15SM FEW015 FEW030 SCT130 SCT260 02/M02 A2977 RMK CU1SC1AC2CI1 SC TR SLP095
15:00
V
2 °C 15 mi 23,000 ft 320° 320° 16 kt METAR CYWG 222100Z 32016KT 15SM FEW020 FEW035 SCT120 SCT160 BKN230 02/M02 A2975 RMK CU1SC2AC1AC1CS3 CU TR AC TR VIRGA S HALO SLP089
14:24
V
2 °C 15 mi 16,000 ft 320° 320° 14 kt METAR CYWG 222024Z 32014KT 15SM FEW037 FEW130 BKN160 BKN230 02/M03 A2974 RMK SC1AC1AC4CI1 CI TR T LWR SLP086
14:00
V
3 °C 15 mi 26,000 ft 320° 320° 18 kt METAR CYWG 222000Z 32018KT 15SM SCT130 SCT150 BKN260 03/M03 A2973 RMK AC3AC1CI2 SLP083
13:00
V
3 °C 15 mi - 320° 320° 14 - 24 kt METAR CYWG 221900Z 32014G24KT 15SM FEW070 FEW085 FEW120 SCT260 03/M03 A2972 RMK AC1AC1AC1CC3 AC TR AC TR AC TR SLP079
12:00
V
3 °C 15 mi - 290° 290° 14 kt METAR CYWG 221800Z 29014KT 15SM FEW025 FEW040 FEW066 03/M04 A2973 RMK CU1SC1AC1 CU TR SC TR AC TR SLP081
11:00
V
1 °C 15 mi - 270° 270° 12 kt METAR CYWG 221700Z 27012KT 15SM FEW040 FEW055 FEW080 01/M05 A2973 RMK SC1SC1AC1 SC TR SC TR AC TR SLP081
10:00
V
-1 °C 15 mi - 270° 270° 12 kt METAR CYWG 221600Z 27012KT 15SM FEW020 FEW035 FEW070 SCT260 M01/M06 A2973 RMK CU1SC1ACC1CI3 CU TR SC TR ACC TR SLP084
09:00
V
-3 °C 14 mi 26,000 ft 260° 260° 12 kt METAR CYWG 221500Z 26012KT 14SM FEW015 FEW020 FEW035 BKN260 M03/M06 A2973 RMK CF1CU1SC1CI5 CF TR SC TR VIS LWR E FU ASOCTD SLP083
08:00
V
-4 °C 15 mi 23,000 ft 260° 260° 12 kt METAR CYWG 221400Z 26012KT 15SM FEW160 BKN230 M04/M07 A2973 RMK AC2CI3 SLP086
07:00
V
-5 °C 15 mi - 260° 260° 11 kt METAR CYWG 221300Z 26011KT 15SM FEW230 M05/M07 A2975 RMK CI2 SLP090
06:00
V
-5 °C 15 mi - 260° 260° 11 kt METAR CYWG 221200Z 26011KT 15SM FEW042 SCT230 M05/M07 A2975 RMK SC1CI3 SC TR SLP091
05:00
V
-5 °C 15 mi - 260° 260° 8 kt METAR CYWG 221100Z 26008KT 15SM FEW042 FEW250 M05/M07 A2976 RMK SC1CI1 SLP096
04:00
V
-4 °C 15 mi - 250° 250° 8 kt METAR CYWG 221000Z 25008KT 15SM FEW022 FEW042 M04/M07 A2978 RMK SC1SC2 SC TR SLP100
03:00
V
-4 °C 15 mi - 240° 240° 8 kt METAR CYWG 220900Z 24008KT 15SM FEW020 SCT042 M04/M07 A2979 RMK SC1SC2 SLP104
02:00
V
-3 °C 15 mi 4,300 ft 240° 240° 7 kt METAR CYWG 220800Z 24007KT 15SM SCT020 BKN043 M03/M08 A2980 RMK SC3SC4 SLP107
01:00
M
-3 °C 15 mi 2,400 ft 240° 240° 7 kt METAR CYWG 220700Z 24007KT 15SM BKN024 BKN042 M03/M09 A2981 RMK SC7SC1 SC TR SLP112
00:00
V
-3 °C 15 mi 3,800 ft 230° 230° 4 kt METAR CYWG 220600Z 23004KT 15SM BKN038 M03/M08 A2983 RMK SC7 SLP116

February 21, 2024

Time Code Weather Temp. Visibility Ceiling Wind METAR/SPECI
23:00
V
-4 °C 15 mi 5,500 ft 240° 240° 4 kt METAR CYWG 220500Z 24004KT 15SM BKN055 OVC072 M04/M07 A2984 RMK SC7AC1 SLP123
22:00
V
-4 °C 15 mi 5,600 ft 280° 280° 2 kt METAR CYWG 220400Z 28002KT 15SM BKN056 M04/M07 A2985 RMK SC7 SLP125
21:00
V
-3 °C 15 mi 6,000 ft 160° 160° 2 kt METAR CYWG 220300Z 16002KT 15SM BKN060 M03/M09 A2985 RMK SC6 SLP126
20:00
V
-3 °C 14 mi 6,500 ft 180° 180° 5 kt METAR CYWG 220200Z 18005KT 14SM VCSH FEW055 BKN065 BKN075 BKN110 M03/M09 A2985 RMK SC2SC3AC2AC1 AC TR VIS SW-N LWR VCSH MOON VSBL SLP126
19:00
V
-3 °C 15 mi 7,500 ft 170° 170° 3 kt METAR CYWG 220100Z 17003KT 040V200 15SM FEW055 BKN075 OVC100 M03/M08 A2987 RMK SC2AC4AS2 SLP135
17:00
V
-3 °C 15 mi 11,000 ft 070° 070° 5 kt METAR CYWG 212300Z 07005KT 15SM FEW075 FEW090 FEW100 BKN110 M03/M09 A2985 RMK AC1ACC1AC1AC5 AC TR VIRGA NE AND SW SLP126
16:00
V
-3 °C 15 mi 12,000 ft 050° 050° 6 kt METAR CYWG 212200Z 05006KT 15SM FEW090 FEW110 BKN120 M03/M10 A2986 RMK AC1ACC1AC5 DIST VIRGA W-NW SLP130
15:00
V
-3 °C 15 mi - 360° 360° 6 kt METAR CYWG 212100Z 36006KT 15SM FEW090 SCT120 SCT130 M03/M10 A2988 RMK AC1AC3AC1 AC TR SLP136
14:00
V
-3 °C 15 mi 12,000 ft 360° 360° 4 kt METAR CYWG 212000Z 36004KT 15SM FEW060 FEW090 BKN120 BKN130 M03/M10 A2989 RMK SC1AC2AC4AC1 SC TR AC TR VIS E-SE LWR DIST HZ SLP139
13:00
V
-4 °C 15 mi 9,000 ft 340° 340° 5 kt METAR CYWG 211900Z 34005KT 15SM FEW060 BKN090 BKN120 BKN130 M04/M10 A2990 RMK SC2AC4AS1AC1 AC TR VIS LWR SE-W FU ASOCTD SLP145
12:00
V
-4 °C 9 mi 13,000 ft 040° 040° 3 kt METAR CYWG 211800Z 04003KT 360V070 9SM FEW052 FEW062 FEW110 BKN130 BKN140 M04/M10 A2989 RMK SC1SC1AS1AC4AC1 AS TR AC TR FU ASOCTD SLP141
11:00
V
-5 °C 11 mi 26,000 ft 170° 170° 3 kt METAR CYWG 211700Z 17003KT 150V230 11SM FEW060 FEW083 FEW090 BKN260 M05/M11 A2990 RMK SC1AC1AC1CS5 AC TR FU ASOCTD SLP146
10:00
V
-7 °C 9 mi 13,000 ft 360° 360° 0 kt METAR CYWG 211600Z 00000KT 9SM FEW062 SCT066 BKN130 BKN140 M07/M11 A2992 RMK SC2AC2AS2AC1 FU EMBD SLP151
09:00
V
-8 °C 10 mi 13,000 ft 100° 100° 2 kt METAR CYWG 211500Z 10002KT 10SM FEW085 FEW095 FEW110 OVC130 OVC220 M08/M12 A2992 RMK AC1AC1AS2AC6CI1 AC TR AC TR CI TR VIRGA NW-NE SLP150
08:00
V
-9 °C 15 mi 13,000 ft 050° 050° 2 kt METAR CYWG 211400Z 05002KT 15SM BKN130 BKN220 M09/M12 A2992 RMK AC7CI1 CI TR SLP153
07:00
V
-10 °C 15 mi 13,000 ft 040° 040° 3 kt METAR CYWG 211300Z 04003KT 15SM BKN130 BKN220 M10/M13 A2991 RMK AC6CC1 CC TR SLP147
06:00
V
-11 °C 15 mi 14,000 ft 020° 020° 4 kt METAR CYWG 211200Z 02004KT 15SM BKN140 M11/M13 A2990 RMK AC5 SLP147
05:00
V
-11 °C 15 mi - 320° 320° 2 kt METAR CYWG 211100Z 32002KT 15SM SCT150 M11/M13 A2992 RMK AC4 SLP150
04:00
V
-11 °C 15 mi - 330° 330° 4 kt METAR CYWG 211000Z 33004KT 15SM FEW150 SCT220 M11/M13 A2992 RMK AC2CI1 SLP152
03:00
V
-11 °C 15 mi - 290° 290° 4 kt METAR CYWG 210900Z 29004KT 15SM SCT180 M11/M13 A2992 RMK AC3 SLP153
02:00
V
-11 °C 15 mi - 260° 260° 5 kt METAR CYWG 210800Z 26005KT 15SM SCT200 M11/M13 A2992 RMK CI4 SLP153
01:00
V
-10 °C 15 mi 23,000 ft 260° 260° 4 kt METAR CYWG 210700Z 26004KT 15SM FEW180 BKN230 M10/M12 A2993 RMK AC1CI5 SLP155
00:00
V
-9 °C 15 mi 22,000 ft 280° 280° 5 kt METAR CYWG 210600Z 28005KT 15SM BKN220 M09/M12 A2993 RMK CI6 SLP155